This is the latest recevied weather packets stored in our database for station/object EB2GLU-13. If no packets are shown the sender has not sent any weather packets the latest 10 day(s).
| Time | Temp. | Humidity | Pressure | Rain* | Wind** | Luminosity | Snow |
|---|---|---|---|---|---|---|---|
| 1777687482 | 19.44° C | 64% | 1017.3 hPa | 0 mm | - | - | - |
| 1777686732 | 19.44° C | 64% | 1017.1 hPa | 0 mm | - | - | - |
| 1777685982 | 19.44° C | 64% | 1016.9 hPa | 0 mm | - | - | - |
| 1777685231 | 19.44° C | 65% | 1017.1 hPa | 0 mm | - | - | - |
| 1777684481 | 19.44° C | 65% | 1017.1 hPa | 0 mm | - | - | - |
| 1777683731 | 18.89° C | 66% | 1017.1 hPa | 0 mm | - | - | - |
| 1777682982 | 19.44° C | 66% | 1017.5 hPa | 0 mm | - | - | - |
| 1777682231 | 19.44° C | 66% | 1017.6 hPa | 0 mm | - | - | - |
| 1777681481 | 19.44° C | 65% | 1017.8 hPa | 0 mm | - | - | - |
| 1777680731 | 19.44° C | 66% | 1017.5 hPa | 0 mm | - | - | - |
| 1777679981 | 20° C | 64% | 1017.9 hPa | 0 mm | - | - | - |
| 1777679231 | 20° C | 63% | 1018.1 hPa | 0 mm | - | - | - |
| 1777678481 | 20° C | 63% | 1017.9 hPa | 0 mm | - | - | - |
| 1777677731 | 20.56° C | 63% | 1017.8 hPa | 0 mm | - | - | - |
| 1777676981 | 20.56° C | 62% | 1017.7 hPa | 0 mm | - | - | - |
| 1777676231 | 20.56° C | 61% | 1017.7 hPa | 0 mm | - | - | - |
| 1777675481 | 21.11° C | 60% | 1017.8 hPa | 0 mm | - | - | - |
| 1777674731 | 20.56° C | 60% | 1017.8 hPa | 0 mm | - | - | - |
| 1777673982 | 21.11° C | 60% | 1017.7 hPa | 0 mm | - | - | - |
| 1777672481 | 21.11° C | 62% | 1018 hPa | 0 mm | - | - | - |
| 1777671731 | 21.11° C | 62% | 1018.1 hPa | 0 mm | - | - | - |
| 1777670981 | 21.11° C | 63% | 1018.1 hPa | 0 mm | - | - | - |
| 1777670231 | 21.11° C | 64% | 1017.8 hPa | 0 mm | - | - | - |
| 1777633480 | 25.56° C | 53% | 1018.5 hPa | 0 mm | - | - | - |
| 1777632730 | 26.11° C | 52% | 1018.5 hPa | 0 mm | - | - | - |
* Rain latest hour (hover to see other rain measurements)
** Current wind speed in m/s (hover to see current wind gust speed)